sensor_id;sensor_type;location;lat;lon;timestamp;pressure;altitude;pressure_sealevel;temperature;humidity
48035;BME280;33812;46.480;6.834;2023-02-22T00:00:29;93562.44;;;22.65;34.37
48035;BME280;33812;46.480;6.834;2023-02-22T00:04:42;93553.34;;;22.65;34.02
48035;BME280;33812;46.480;6.834;2023-02-22T00:08:46;93552.59;;;22.64;34.26
48035;BME280;33812;46.480;6.834;2023-02-22T00:12:48;93554.13;;;22.65;34.04
48035;BME280;33812;46.480;6.834;2023-02-22T00:16:53;93549.50;;;22.62;34.17
48035;BME280;33812;46.480;6.834;2023-02-22T00:20:59;93555.78;;;22.63;34.36
48035;BME280;33812;46.480;6.834;2023-02-22T00:25:01;93545.94;;;22.62;33.89
48035;BME280;33812;46.480;6.834;2023-02-22T00:29:03;93545.50;;;22.63;33.94
48035;BME280;33812;46.480;6.834;2023-02-22T00:33:06;93549.03;;;22.64;33.94
48035;BME280;33812;46.480;6.834;2023-02-22T00:37:09;93542.72;;;22.63;33.92
48035;BME280;33812;46.480;6.834;2023-02-22T00:41:11;93540.41;;;22.62;33.94
48035;BME280;33812;46.480;6.834;2023-02-22T00:45:15;93543.19;;;22.62;33.88
48035;BME280;33812;46.480;6.834;2023-02-22T00:49:18;93540.41;;;22.62;33.73
48035;BME280;33812;46.480;6.834;2023-02-22T00:53:21;93536.09;;;22.61;33.70
48035;BME280;33812;46.480;6.834;2023-02-22T00:57:23;93540.84;;;22.60;33.56
48035;BME280;33812;46.480;6.834;2023-02-22T01:01:26;93538.06;;;22.60;33.44
48035;BME280;33812;46.480;6.834;2023-02-22T01:05:30;93538.06;;;22.60;33.46
48035;BME280;33812;46.480;6.834;2023-02-22T01:09:32;93533.00;;;22.58;33.54
48035;BME280;33812;46.480;6.834;2023-02-22T01:13:34;93541.28;;;22.58;33.45
48035;BME280;33812;46.480;6.834;2023-02-22T01:17:37;93540.50;;;22.58;33.40
48035;BME280;33812;46.480;6.834;2023-02-22T01:21:41;93535.88;;;22.55;33.50
48035;BME280;33812;46.480;6.834;2023-02-22T01:25:42;93531.00;;;22.59;33.40
48035;BME280;33812;46.480;6.834;2023-02-22T01:29:44;93529.13;;;22.56;33.37
48035;BME280;33812;46.480;6.834;2023-02-22T01:33:50;93530.69;;;22.57;33.42
48035;BME280;33812;46.480;6.834;2023-02-22T01:37:54;93529.91;;;22.56;33.31
48035;BME280;33812;46.480;6.834;2023-02-22T01:41:57;93520.34;;;22.57;33.38
48035;BME280;33812;46.480;6.834;2023-02-22T01:46:00;93518.03;;;22.56;33.23
48035;BME280;33812;46.480;6.834;2023-02-22T01:50:03;93516.50;;;22.55;33.18
48035;BME280;33812;46.480;6.834;2023-02-22T01:54:10;93513.72;;;22.55;33.24
48035;BME280;33812;46.480;6.834;2023-02-22T01:58:17;93509.72;;;22.56;33.05
48035;BME280;33812;46.480;6.834;2023-02-22T02:02:20;93510.97;;;22.55;33.24
48035;BME280;33812;46.480;6.834;2023-02-22T02:06:25;93503.13;;;22.53;33.25
48035;BME280;33812;46.480;6.834;2023-02-22T02:10:30;93507.88;;;22.53;33.24
48035;BME280;33812;46.480;6.834;2023-02-22T02:14:34;93505.56;;;22.51;32.73
48035;BME280;33812;46.480;6.834;2023-02-22T02:18:39;93509.09;;;22.52;32.76
48035;BME280;33812;46.480;6.834;2023-02-22T02:22:46;93507.53;;;22.51;32.83
48035;BME280;33812;46.480;6.834;2023-02-22T02:27:16;93504.78;;;22.51;32.87
48035;BME280;33812;46.480;6.834;2023-02-22T02:35:57;93503.25;;;22.50;32.87
48035;BME280;33812;46.480;6.834;2023-02-22T02:40:09;93494.63;;;22.48;32.87
48035;BME280;33812;46.480;6.834;2023-02-22T02:44:16;93500.94;;;22.48;32.92
48035;BME280;33812;46.480;6.834;2023-02-22T02:48:26;93496.59;;;22.47;32.74
48035;BME280;33812;46.480;6.834;2023-02-22T02:52:33;93488.28;;;22.47;32.70
48035;BME280;33812;46.480;6.834;2023-02-22T02:56:36;93490.31;;;22.46;32.64
48035;BME280;33812;46.480;6.834;2023-02-22T03:00:40;93498.91;;;22.49;32.58
48035;BME280;33812;46.480;6.834;2023-02-22T03:04:52;93490.31;;;22.46;32.56
48035;BME280;33812;46.480;6.834;2023-02-22T03:09:07;93493.53;;;22.45;32.74
48035;BME280;33812;46.480;6.834;2023-02-22T03:13:18;93488.00;;;22.45;32.63
48035;BME280;33812;46.480;6.834;2023-02-22T03:17:34;93478.91;;;22.44;32.45
48035;BME280;33812;46.480;6.834;2023-02-22T03:21:45;93482.13;;;22.43;32.34
48035;BME280;33812;46.480;6.834;2023-02-22T03:25:54;93482.13;;;22.43;32.54
48035;BME280;33812;46.480;6.834;2023-02-22T03:30:02;93488.44;;;22.43;32.38
48035;BME280;33812;46.480;6.834;2023-02-22T03:34:08;93475.81;;;22.42;32.71
48035;BME280;33812;46.480;6.834;2023-02-22T03:38:15;93484.59;;;22.41;32.40
48035;BME280;33812;46.480;6.834;2023-02-22T03:42:22;93489.34;;;22.40;32.55
48035;BME280;33812;46.480;6.834;2023-02-22T03:46:27;93481.03;;;22.40;32.35
48035;BME280;33812;46.480;6.834;2023-02-22T03:50:33;93475.19;;;22.38;32.20
48035;BME280;33812;46.480;6.834;2023-02-22T03:54:37;93480.88;;;22.34;32.34
48035;BME280;33812;46.480;6.834;2023-02-22T03:58:41;93480.41;;;22.36;32.19
48035;BME280;33812;46.480;6.834;2023-02-22T04:02:49;93474.09;;;22.36;32.38
48035;BME280;33812;46.480;6.834;2023-02-22T04:06:51;93481.63;;;22.35;32.24
48035;BME280;33812;46.480;6.834;2023-02-22T04:10:54;93486.41;;;22.34;32.21
48035;BME280;33812;46.480;6.834;2023-02-22T04:14:57;93485.19;;;22.36;32.22
48035;BME280;33812;46.480;6.834;2023-02-22T04:18:59;93484.84;;;22.33;32.30
48035;BME280;33812;46.480;6.834;2023-02-22T04:23:00;93482.09;;;22.33;32.22
48035;BME280;33812;46.480;6.834;2023-02-22T04:27:02;93483.31;;;22.32;32.16
48035;BME280;33812;46.480;6.834;2023-02-22T04:31:05;93495.16;;;22.33;32.20
48035;BME280;33812;46.480;6.834;2023-02-22T04:35:08;93486.53;;;22.31;31.89
48035;BME280;33812;46.480;6.834;2023-02-22T04:39:10;93492.84;;;22.31;32.21
48035;BME280;33812;46.480;6.834;2023-02-22T04:43:11;93499.16;;;22.32;32.15
48035;BME280;33812;46.480;6.834;2023-02-22T04:47:14;93486.53;;;22.31;32.07
48035;BME280;33812;46.480;6.834;2023-02-22T04:51:16;93484.97;;;22.30;32.08
48035;BME280;33812;46.480;6.834;2023-02-22T04:55:19;93486.66;;;22.27;31.74
48035;BME280;33812;46.480;6.834;2023-02-22T04:59:21;93488.34;;;22.25;31.94
48035;BME280;33812;46.480;6.834;2023-02-22T05:03:25;93490.03;;;22.22;31.33
48035;BME280;33812;46.480;6.834;2023-02-22T05:07:26;93494.59;;;22.16;31.43
48035;BME280;33812;46.480;6.834;2023-02-22T05:11:28;93479.22;;;22.15;31.21
48035;BME280;33812;46.480;6.834;2023-02-22T05:15:30;93485.53;;;22.15;31.16
48035;BME280;33812;46.480;6.834;2023-02-22T05:19:33;93491.06;;;22.15;31.26
48035;BME280;33812;46.480;6.834;2023-02-22T05:23:35;93473.34;;;22.13;31.24
48035;BME280;33812;46.480;6.834;2023-02-22T05:27:37;93474.47;;;22.15;31.16
48035;BME280;33812;46.480;6.834;2023-02-22T05:31:39;93466.78;;;22.19;31.16
48035;BME280;33812;46.480;6.834;2023-02-22T05:35:42;93471.84;;;22.21;31.46
48035;BME280;33812;46.480;6.834;2023-02-22T05:39:45;93464.00;;;22.19;31.50
48035;BME280;33812;46.480;6.834;2023-02-22T05:43:47;93471.09;;;22.20;31.43
48035;BME280;33812;46.480;6.834;2023-02-22T05:47:49;93467.44;;;22.24;31.69
48035;BME280;33812;46.480;6.834;2023-02-22T05:51:53;93470.31;;;22.20;31.58
48035;BME280;33812;46.480;6.834;2023-02-22T05:55:58;93470.13;;;22.14;31.19
48035;BME280;33812;46.480;6.834;2023-02-22T06:00:00;93465.69;;;22.17;31.15
48035;BME280;33812;46.480;6.834;2023-02-22T06:04:02;93465.25;;;22.18;31.17
48035;BME280;33812;46.480;6.834;2023-02-22T06:08:06;93466.31;;;22.21;31.50
48035;BME280;33812;46.480;6.834;2023-02-22T06:12:09;93472.31;;;22.19;31.88
48035;BME280;33812;46.480;6.834;2023-02-22T06:16:14;93460.47;;;22.19;32.39
48035;BME280;33812;46.480;6.834;2023-02-22T06:24:37;93477.41;;;22.21;32.21
48035;BME280;33812;46.480;6.834;2023-02-22T06:28:41;93474.00;;;22.17;32.09
48035;BME280;33812;46.480;6.834;2023-02-22T06:32:45;93471.09;;;22.20;32.07
48035;BME280;33812;46.480;6.834;2023-02-22T06:36:47;93471.09;;;22.20;32.24
48035;BME280;33812;46.480;6.834;2023-02-22T06:40:53;93471.41;;;22.22;32.93
48035;BME280;33812;46.480;6.834;2023-02-22T06:45:04;93478.94;;;22.00;33.64
48035;BME280;33812;46.480;6.834;2023-02-22T06:49:08;93484.63;;;22.18;33.40
48035;BME280;33812;46.480;6.834;2023-02-22T06:53:10;93493.25;;;22.20;33.11
48035;BME280;33812;46.480;6.834;2023-02-22T06:57:14;93491.69;;;22.19;33.20
48035;BME280;33812;46.480;6.834;2023-02-22T07:01:17;93496.03;;;22.20;33.03
48035;BME280;33812;46.480;6.834;2023-02-22T07:05:22;93497.22;;;22.19;32.80
48035;BME280;33812;46.480;6.834;2023-02-22T07:09:26;93489.25;;;22.21;32.95
48035;BME280;33812;46.480;6.834;2023-02-22T07:13:30;93496.31;;;22.22;33.12
48035;BME280;33812;46.480;6.834;2023-02-22T07:17:49;93497.22;;;22.19;32.94
48035;BME280;33812;46.480;6.834;2023-02-22T07:21:58;93507.84;;;22.21;32.95
48035;BME280;33812;46.480;6.834;2023-02-22T07:26:05;93514.63;;;22.20;32.60
48035;BME280;33812;46.480;6.834;2023-02-22T07:30:15;93511.84;;;22.20;32.72
48035;BME280;33812;46.480;6.834;2023-02-22T07:34:18;93508.75;;;22.18;32.66
48035;BME280;33812;46.480;6.834;2023-02-22T07:38:26;93514.75;;;22.16;32.63
48035;BME280;33812;46.480;6.834;2023-02-22T07:42:29;93512.28;;;22.18;32.70
48035;BME280;33812;46.480;6.834;2023-02-22T07:46:34;93515.81;;;22.19;32.49
48035;BME280;33812;46.480;6.834;2023-02-22T07:50:39;93510.75;;;22.17;32.43
48035;BME280;33812;46.480;6.834;2023-02-22T07:54:44;93515.81;;;22.19;32.46
48035;BME280;33812;46.480;6.834;2023-02-22T07:58:47;93513.84;;;22.19;32.47
48035;BME280;33812;46.480;6.834;2023-02-22T08:02:51;93521.34;;;22.19;32.39
48035;BME280;33812;46.480;6.834;2023-02-22T08:06:53;93525.69;;;22.20;32.31
48035;BME280;33812;46.480;6.834;2023-02-22T08:10:56;93514.16;;;22.21;32.28
48035;BME280;33812;46.480;6.834;2023-02-22T08:14:59;93522.47;;;22.21;32.26
48035;BME280;33812;46.480;6.834;2023-02-22T08:19:02;93521.22;;;22.22;32.28
48035;BME280;33812;46.480;6.834;2023-02-22T08:23:06;93520.03;;;22.24;32.16
48035;BME280;33812;46.480;6.834;2023-02-22T08:27:10;93526.00;;;22.22;32.18
48035;BME280;33812;46.480;6.834;2023-02-22T08:31:13;93526.75;;;22.22;32.23
48035;BME280;33812;46.480;6.834;2023-02-22T08:35:25;93533.09;;;22.23;32.16
48035;BME280;33812;46.480;6.834;2023-02-22T08:39:29;93528.66;;;22.26;32.12
48035;BME280;33812;46.480;6.834;2023-02-22T08:43:34;93529.22;;;22.20;32.22
48035;BME280;33812;46.480;6.834;2023-02-22T08:47:45;93529.84;;;22.25;32.26
48035;BME280;33812;46.480;6.834;2023-02-22T08:51:50;93534.19;;;22.26;32.30
48035;BME280;33812;46.480;6.834;2023-02-22T08:55:52;93540.47;;;22.26;32.31
48035;BME280;33812;46.480;6.834;2023-02-22T08:59:54;93535.72;;;22.27;32.43
48035;BME280;33812;46.480;6.834;2023-02-22T09:03:56;93528.66;;;22.26;32.38
48035;BME280;33812;46.480;6.834;2023-02-22T09:08:06;93531.41;;;22.26;32.50
48035;BME280;33812;46.480;6.834;2023-02-22T09:12:10;93534.94;;;22.26;32.00
48035;BME280;33812;46.480;6.834;2023-02-22T09:16:19;93530.19;;;22.27;31.96
48035;BME280;33812;46.480;6.834;2023-02-22T09:20:22;93530.19;;;22.27;32.21
48035;BME280;33812;46.480;6.834;2023-02-22T09:24:27;93523.75;;;22.30;32.18
48035;BME280;33812;46.480;6.834;2023-02-22T09:28:31;93519.91;;;22.27;32.24
48035;BME280;33812;46.480;6.834;2023-02-22T09:32:38;93522.97;;;22.29;32.20
48035;BME280;33812;46.480;6.834;2023-02-22T09:36:41;93521.28;;;22.32;32.55
48035;BME280;33812;46.480;6.834;2023-02-22T09:40:47;93516.53;;;22.32;32.42
48035;BME280;33812;46.480;6.834;2023-02-22T09:44:52;93515.75;;;22.32;32.95
48035;BME280;33812;46.480;6.834;2023-02-22T09:49:15;93520.06;;;22.33;34.43
48035;BME280;33812;46.480;6.834;2023-02-22T09:53:22;93524.38;;;22.34;34.86
48035;BME280;33812;46.480;6.834;2023-02-22T09:57:33;93516.09;;;22.34;34.74
48035;BME280;33812;46.480;6.834;2023-02-22T10:01:39;93525.47;;;22.37;34.91
48035;BME280;33812;46.480;6.834;2023-02-22T10:05:50;93522.69;;;22.37;34.75
48035;BME280;33812;46.480;6.834;2023-02-22T10:09:56;93521.03;;;22.39;34.70
48035;BME280;33812;46.480;6.834;2023-02-22T10:14:24;93517.16;;;22.37;34.50
48035;BME280;33812;46.480;6.834;2023-02-22T10:18:41;93527.34;;;22.40;34.61
48035;BME280;33812;46.480;6.834;2023-02-22T10:22:56;93511.50;;;22.40;34.38
48035;BME280;33812;46.480;6.834;2023-02-22T10:27:02;93507.66;;;22.38;34.39
48035;BME280;33812;46.480;6.834;2023-02-22T10:31:07;93517.81;;;22.41;34.23
48035;BME280;33812;46.480;6.834;2023-02-22T10:35:16;93512.72;;;22.39;34.34
48035;BME280;33812;46.480;6.834;2023-02-22T10:39:24;93508.28;;;22.42;34.66
48035;BME280;33812;46.480;6.834;2023-02-22T10:43:30;93504.28;;;22.43;34.31
48035;BME280;33812;46.480;6.834;2023-02-22T10:47:37;93505.81;;;22.44;34.13
48035;BME280;33812;46.480;6.834;2023-02-22T10:51:38;93508.59;;;22.44;34.23
48035;BME280;33812;46.480;6.834;2023-02-22T10:56:10;93501.84;;;22.45;34.28
48035;BME280;33812;46.480;6.834;2023-02-22T11:00:16;93504.63;;;22.45;34.23
48035;BME280;33812;46.480;6.834;2023-02-22T11:04:44;93494.63;;;22.48;34.23
48035;BME280;33812;46.480;6.834;2023-02-22T11:08:47;93499.38;;;22.47;33.85
48035;BME280;33812;46.480;6.834;2023-02-22T11:12:51;93498.63;;;22.46;34.02
48035;BME280;33812;46.480;6.834;2023-02-22T11:16:54;93496.16;;;22.49;34.15
48035;BME280;33812;46.480;6.834;2023-02-22T11:21:06;93492.16;;;22.50;34.35
48035;BME280;33812;46.480;6.834;2023-02-22T11:25:18;93489.72;;;22.52;34.03
48035;BME280;33812;46.480;6.834;2023-02-22T11:29:32;93487.72;;;22.52;34.26
48035;BME280;33812;46.480;6.834;2023-02-22T11:33:59;93481.72;;;22.54;34.46
48035;BME280;33812;46.480;6.834;2023-02-22T11:38:15;93483.28;;;22.55;34.46
48035;BME280;33812;46.480;6.834;2023-02-22T11:42:21;93478.50;;;22.55;34.32
48035;BME280;33812;46.480;6.834;2023-02-22T11:46:26;93476.50;;;22.56;34.23
48035;BME280;33812;46.480;6.834;2023-02-22T11:50:32;93474.50;;;22.56;34.40
48035;BME280;33812;46.480;6.834;2023-02-22T11:54:50;93474.50;;;22.56;34.34
48035;BME280;33812;46.480;6.834;2023-02-22T11:59:03;93464.22;;;22.57;34.31
48035;BME280;33812;46.480;6.834;2023-02-22T12:03:24;93462.66;;;22.56;34.21
48035;BME280;33812;46.480;6.834;2023-02-22T12:07:38;93463.44;;;22.56;34.33
48035;BME280;33812;46.480;6.834;2023-02-22T12:11:53;93462.97;;;22.58;34.37
48035;BME280;33812;46.480;6.834;2023-02-22T12:16:03;93453.88;;;22.57;34.22
48035;BME280;33812;46.480;6.834;2023-02-22T12:20:16;93452.66;;;22.58;34.03
48035;BME280;33812;46.480;6.834;2023-02-22T12:24:24;93463.75;;;22.58;34.23
48035;BME280;33812;46.480;6.834;2023-02-22T12:28:37;93454.66;;;22.58;34.26
48035;BME280;33812;46.480;6.834;2023-02-22T12:32:46;93457.44;;;22.58;34.19
48035;BME280;33812;46.480;6.834;2023-02-22T12:36:52;93456.22;;;22.59;34.18
48035;BME280;33812;46.480;6.834;2023-02-22T12:41:04;93455.75;;;22.61;34.40
48035;BME280;33812;46.480;6.834;2023-02-22T12:45:24;93447.44;;;22.61;34.26
48035;BME280;33812;46.480;6.834;2023-02-22T12:49:32;93446.66;;;22.60;34.32
48035;BME280;33812;46.480;6.834;2023-02-22T12:53:37;93452.22;;;22.60;34.18
48035;BME280;33812;46.480;6.834;2023-02-22T12:57:44;93446.66;;;22.60;34.26
48035;BME280;33812;46.480;6.834;2023-02-22T13:01:57;93447.91;;;22.59;34.05
48035;BME280;33812;46.480;6.834;2023-02-22T13:06:16;93438.81;;;22.58;33.93
48035;BME280;33812;46.480;6.834;2023-02-22T13:10:40;93442.38;;;22.59;33.91
48035;BME280;33812;46.480;6.834;2023-02-22T13:14:52;93449.91;;;22.58;34.15
48035;BME280;33812;46.480;6.834;2023-02-22T13:19:10;93443.59;;;22.58;33.93
48035;BME280;33812;46.480;6.834;2023-02-22T13:23:23;93443.59;;;22.58;34.18
48035;BME280;33812;46.480;6.834;2023-02-22T13:27:34;93447.59;;;22.57;33.98
48035;BME280;33812;46.480;6.834;2023-02-22T13:31:49;93454.66;;;22.58;33.91
48035;BME280;33812;46.480;6.834;2023-02-22T13:36:07;93451.13;;;22.57;33.63
48035;BME280;33812;46.480;6.834;2023-02-22T13:40:23;93451.88;;;22.58;33.93
48035;BME280;33812;46.480;6.834;2023-02-22T13:49:23;93447.72;;;22.53;34.22
48035;BME280;33812;46.480;6.834;2023-02-22T13:53:46;93450.94;;;22.52;34.37
48035;BME280;33812;46.480;6.834;2023-02-22T13:57:59;93446.63;;;22.51;33.94
48035;BME280;33812;46.480;6.834;2023-02-22T14:02:31;93454.63;;;22.49;34.15
48035;BME280;33812;46.480;6.834;2023-02-22T14:06:45;93454.63;;;22.49;34.65
48035;BME280;33812;46.480;6.834;2023-02-22T14:10:51;93451.22;;;22.44;34.69
48035;BME280;33812;46.480;6.834;2023-02-22T14:15:14;93446.31;;;22.49;34.67
48035;BME280;33812;46.480;6.834;2023-02-22T14:19:32;93443.53;;;22.49;34.78
48035;BME280;33812;46.480;6.834;2023-02-22T14:23:35;93447.88;;;22.50;34.65
48035;BME280;33812;46.480;6.834;2023-02-22T14:27:47;93446.31;;;22.49;34.60
48035;BME280;33812;46.480;6.834;2023-02-22T14:32:00;93434.63;;;22.44;35.25
48035;BME280;33812;46.480;6.834;2023-02-22T14:36:03;93442.91;;;22.44;35.03
48035;BME280;33812;46.480;6.834;2023-02-22T14:40:07;93450.44;;;22.44;34.62
48035;BME280;33812;46.480;6.834;2023-02-22T14:44:24;93438.16;;;22.45;34.69
48035;BME280;33812;46.480;6.834;2023-02-22T14:48:31;93440.94;;;22.45;34.51
48035;BME280;33812;46.480;6.834;2023-02-22T14:52:39;93443.25;;;22.46;34.38
48035;BME280;33812;46.480;6.834;2023-02-22T14:56:44;93443.25;;;22.46;34.10
48035;BME280;33812;46.480;6.834;2023-02-22T15:00:51;93443.25;;;22.46;34.21
48035;BME280;33812;46.480;6.834;2023-02-22T15:04:56;93437.69;;;22.46;34.16
48035;BME280;33812;46.480;6.834;2023-02-22T15:09:07;93439.69;;;22.46;34.18
48035;BME280;33812;46.480;6.834;2023-02-22T15:13:16;93448.78;;;22.46;34.22
48035;BME280;33812;46.480;6.834;2023-02-22T15:17:21;93448.78;;;22.46;34.08
48035;BME280;33812;46.480;6.834;2023-02-22T15:21:28;93449.25;;;22.45;34.22
48035;BME280;33812;46.480;6.834;2023-02-22T15:25:30;93444.78;;;22.48;34.21
48035;BME280;33812;46.480;6.834;2023-02-22T15:29:36;93436.94;;;22.46;34.08
48035;BME280;33812;46.480;6.834;2023-02-22T15:33:39;93444.00;;;22.47;34.22
48035;BME280;33812;46.480;6.834;2023-02-22T15:37:42;93440.94;;;22.45;34.40
48035;BME280;33812;46.480;6.834;2023-02-22T15:41:44;93440.16;;;22.44;34.08
48035;BME280;33812;46.480;6.834;2023-02-22T15:45:46;93436.59;;;22.44;33.94
48035;BME280;33812;46.480;6.834;2023-02-22T15:50:16;93443.69;;;22.45;33.82
48035;BME280;33812;46.480;6.834;2023-02-22T15:54:20;93440.16;;;22.44;33.97
48035;BME280;33812;46.480;6.834;2023-02-22T15:58:25;93442.91;;;22.44;34.10
48035;BME280;33812;46.480;6.834;2023-02-22T16:02:31;93440.94;;;22.45;33.82
48035;BME280;33812;46.480;6.834;2023-02-22T16:06:37;93430.28;;;22.43;34.01
48035;BME280;33812;46.480;6.834;2023-02-22T16:10:45;93433.38;;;22.45;34.68
48035;BME280;33812;46.480;6.834;2023-02-22T16:14:50;93434.28;;;22.42;34.59
48035;BME280;33812;46.480;6.834;2023-02-22T16:19:31;93425.97;;;22.42;34.76
48035;BME280;33812;46.480;6.834;2023-02-22T16:23:45;93428.16;;;22.48;34.84
48035;BME280;33812;46.480;6.834;2023-02-22T16:27:49;93425.72;;;22.50;34.67
48035;BME280;33812;46.480;6.834;2023-02-22T16:31:55;93423.84;;;22.46;35.40
48035;BME280;33812;46.480;6.834;2023-02-22T16:35:56;93421.84;;;22.47;35.63
48035;BME280;33812;46.480;6.834;2023-02-22T16:39:59;93421.84;;;22.47;35.76
48035;BME280;33812;46.480;6.834;2023-02-22T16:44:01;93421.38;;;22.49;35.92
48035;BME280;33812;46.480;6.834;2023-02-22T16:48:13;93419.84;;;22.48;36.15
48035;BME280;33812;46.480;6.834;2023-02-22T16:52:16;93422.47;;;22.51;36.34
48035;BME280;33812;46.480;6.834;2023-02-22T16:56:22;93420.94;;;22.50;36.74
48035;BME280;33812;46.480;6.834;2023-02-22T17:00:27;93426.91;;;22.49;36.94
48035;BME280;33812;46.480;6.834;2023-02-22T17:08:40;93418.63;;;22.49;36.90
48035;BME280;33812;46.480;6.834;2023-02-22T17:12:46;93416.75;;;22.45;36.63
48035;BME280;33812;46.480;6.834;2023-02-22T17:16:50;93421.09;;;22.46;36.26
48035;BME280;33812;46.480;6.834;2023-02-22T17:20:55;93426.31;;;22.44;36.17
48035;BME280;33812;46.480;6.834;2023-02-22T17:25:15;93424.59;;;22.47;36.75
48035;BME280;33812;46.480;6.834;2023-02-22T17:29:20;93431.72;;;22.48;36.66
48035;BME280;33812;46.480;6.834;2023-02-22T17:33:23;93431.72;;;22.48;36.93
48035;BME280;33812;46.480;6.834;2023-02-22T17:37:26;93434.06;;;22.27;37.18
48035;BME280;33812;46.480;6.834;2023-02-22T17:41:28;93442.28;;;22.40;37.04
48035;BME280;33812;46.480;6.834;2023-02-22T17:45:34;93441.69;;;22.45;37.50
48035;BME280;33812;46.480;6.834;2023-02-22T17:49:40;93443.38;;;22.43;36.54
48035;BME280;33812;46.480;6.834;2023-02-22T17:53:55;93453.88;;;22.48;37.48
48035;BME280;33812;46.480;6.834;2023-02-22T17:58:01;93453.88;;;22.48;37.71
48035;BME280;33812;46.480;6.834;2023-02-22T18:02:13;93456.16;;;22.50;37.81
48035;BME280;33812;46.480;6.834;2023-02-22T18:06:18;93458.16;;;22.49;37.89
48035;BME280;33812;46.480;6.834;2023-02-22T18:10:34;93459.25;;;22.52;37.92
48035;BME280;33812;46.480;6.834;2023-02-22T18:14:49;93457.69;;;22.51;38.19
48035;BME280;33812;46.480;6.834;2023-02-22T18:18:54;93456.50;;;22.52;38.84
48035;BME280;33812;46.480;6.834;2023-02-22T18:22:58;93455.25;;;22.53;39.21
48035;BME280;33812;46.480;6.834;2023-02-22T18:27:00;93456.50;;;22.52;39.21
48035;BME280;33812;46.480;6.834;2023-02-22T18:31:06;93446.63;;;22.51;39.12
48035;BME280;33812;46.480;6.834;2023-02-22T18:35:09;93438.31;;;22.51;39.28
48035;BME280;33812;46.480;6.834;2023-02-22T18:39:18;93440.34;;;22.50;39.32
48035;BME280;33812;46.480;6.834;2023-02-22T18:43:21;93438.31;;;22.51;39.35
48035;BME280;33812;46.480;6.834;2023-02-22T18:47:25;93437.84;;;22.52;39.44
48035;BME280;33812;46.480;6.834;2023-02-22T18:51:29;93431.72;;;22.48;39.40
48035;BME280;33812;46.480;6.834;2023-02-22T18:55:30;93430.47;;;22.49;38.96
48035;BME280;33812;46.480;6.834;2023-02-22T18:59:37;93438.63;;;22.53;39.43
48035;BME280;33812;46.480;6.834;2023-02-22T19:03:39;93437.09;;;22.52;39.05
48035;BME280;33812;46.480;6.834;2023-02-22T19:07:42;93432.78;;;22.51;39.19
48035;BME280;33812;46.480;6.834;2023-02-22T19:11:45;93430.00;;;22.51;39.06
48035;BME280;33812;46.480;6.834;2023-02-22T19:15:47;93433.09;;;22.53;38.68
48035;BME280;33812;46.480;6.834;2023-02-22T19:19:49;93423.25;;;22.52;38.84
48035;BME280;33812;46.480;6.834;2023-02-22T19:23:52;93428.81;;;22.52;38.89
48035;BME280;33812;46.480;6.834;2023-02-22T19:27:55;93427.56;;;22.53;38.64
48035;BME280;33812;46.480;6.834;2023-02-22T19:32:00;93428.03;;;22.51;38.37
48035;BME280;33812;46.480;6.834;2023-02-22T19:36:03;93431.25;;;22.50;38.55
48035;BME280;33812;46.480;6.834;2023-02-22T19:40:07;93434.34;;;22.52;38.26
48035;BME280;33812;46.480;6.834;2023-02-22T19:44:10;93433.56;;;22.51;38.48
48035;BME280;33812;46.480;6.834;2023-02-22T19:48:14;93432.78;;;22.51;38.63
48035;BME280;33812;46.480;6.834;2023-02-22T19:52:18;93430.34;;;22.53;38.22
48035;BME280;33812;46.480;6.834;2023-02-22T19:56:24;93431.25;;;22.50;38.25
48035;BME280;33812;46.480;6.834;2023-02-22T20:00:26;93432.78;;;22.51;38.16
48035;BME280;33812;46.480;6.834;2023-02-22T20:04:36;93428.47;;;22.50;38.09
48035;BME280;33812;46.480;6.834;2023-02-22T20:08:38;93430.78;;;22.51;38.18
48035;BME280;33812;46.480;6.834;2023-02-22T20:12:42;93431.25;;;22.50;38.02
48035;BME280;33812;46.480;6.834;2023-02-22T20:16:44;93429.69;;;22.49;38.09
48035;BME280;33812;46.480;6.834;2023-02-22T20:20:46;93435.56;;;22.51;37.96
48035;BME280;33812;46.480;6.834;2023-02-22T20:24:48;93438.31;;;22.51;37.95
48035;BME280;33812;46.480;6.834;2023-02-22T20:28:53;93428.81;;;22.52;37.83
48035;BME280;33812;46.480;6.834;2023-02-22T20:32:55;93431.72;;;22.48;37.83
48035;BME280;33812;46.480;6.834;2023-02-22T20:36:58;93428.47;;;22.50;37.75
48035;BME280;33812;46.480;6.834;2023-02-22T20:40:59;93431.25;;;22.50;37.84
48035;BME280;33812;46.480;6.834;2023-02-22T20:45:03;93429.69;;;22.49;37.95
48035;BME280;33812;46.480;6.834;2023-02-22T20:49:09;93412.31;;;22.48;37.62
48035;BME280;33812;46.480;6.834;2023-02-22T20:53:11;93431.25;;;22.50;37.48
48035;BME280;33812;46.480;6.834;2023-02-22T20:57:13;93424.94;;;22.49;37.61
48035;BME280;33812;46.480;6.834;2023-02-22T21:01:18;93429.25;;;22.50;37.73
48035;BME280;33812;46.480;6.834;2023-02-22T21:05:33;93426.16;;;22.48;37.83
48035;BME280;33812;46.480;6.834;2023-02-22T21:09:35;93429.69;;;22.49;37.77
48035;BME280;33812;46.480;6.834;2023-02-22T21:13:42;93419.84;;;22.48;37.24
48035;BME280;33812;46.480;6.834;2023-02-22T21:17:54;93426.31;;;22.44;37.11
48035;BME280;33812;46.480;6.834;2023-02-22T21:21:57;93415.84;;;22.49;37.42
48035;BME280;33812;46.480;6.834;2023-02-22T21:26:00;93425.72;;;22.50;37.71
48035;BME280;33812;46.480;6.834;2023-02-22T21:30:02;93425.72;;;22.50;38.15
48035;BME280;33812;46.480;6.834;2023-02-22T21:34:05;93421.69;;;22.51;38.44
48035;BME280;33812;46.480;6.834;2023-02-22T21:38:07;93421.84;;;22.47;38.70
48035;BME280;33812;46.480;6.834;2023-02-22T21:46:29;93421.09;;;22.46;38.80
48035;BME280;33812;46.480;6.834;2023-02-22T21:50:37;93430.16;;;22.47;38.99
48035;BME280;33812;46.480;6.834;2023-02-22T21:54:39;93427.09;;;22.45;38.80
48035;BME280;33812;46.480;6.834;2023-02-22T21:58:44;93427.84;;;22.45;38.78
48035;BME280;33812;46.480;6.834;2023-02-22T22:02:47;93423.53;;;22.44;38.91
48035;BME280;33812;46.480;6.834;2023-02-22T22:06:52;93415.22;;;22.44;39.00